Time;durP1;ratioP1;P1;durP2;ratioP2;P2;SDS_P1;SDS_P2;PMS_P1;PMS_P2;Temp;Humidity;BMP_temperature;BMP_pressure;BME280_temperature;BME280_humidity;BME280_pressure;Samples;Min_cycle;Max_cycle;Signal;HPM_P1;HPM_P2
2024/01/22 00:01:43;;;;;;;;;;;;;;;25.85;36.84;95126.81;4879960;29;7841;-57
2024/01/22 00:04:10;;;;;;;;;;;;;;;25.84;36.36;95130.81;4879986;29;7238;-57
2024/01/22 00:06:38;;;;;;;;;;;;;;;25.86;36.40;95144.13;4894584;29;9485;-56
2024/01/22 00:09:05;;;;;;;;;;;;;;;25.88;36.80;95136.09;4880270;29;9088;-57
2024/01/22 00:11:45;;;;;;;;;;;;;;;25.82;36.95;95138.81;4880034;29;7238;-38
2024/01/22 00:14:23;;;;;;;;;;;;;;;25.85;36.95;95140.59;4896532;29;7271;-38
2024/01/22 00:16:50;;;;;;;;;;;;;;;25.85;36.57;95145.34;4896251;29;7262;-38
2024/01/22 00:19:26;;;;;;;;;;;;;;;25.85;36.84;95137.84;4901774;29;7410;-38
2024/01/22 00:21:59;;;;;;;;;;;;;;;25.84;36.11;95125.31;4951117;28;7321;-38
2024/01/22 00:24:43;;;;;;;;;;;;;;;25.82;36.37;95130.56;4983636;28;7058;-38
2024/01/22 00:27:17;;;;;;;;;;;;;;;25.85;36.42;95121.31;5029796;28;8862;-38
2024/01/22 00:29:48;;;;;;;;;;;;;;;25.84;36.40;95116.28;5019740;28;7433;-38
2024/01/22 00:32:37;;;;;;;;;;;;;;;25.80;36.39;95104.75;5045846;28;8846;-38
2024/01/22 00:35:08;;;;;;;;;;;;;;;25.82;35.94;95105.75;5067607;28;6914;-38
2024/01/22 00:37:34;;;;;;;;;;;;;;;25.82;36.44;95100.25;5031111;28;7274;-38
2024/01/22 00:40:00;;;;;;;;;;;;;;;25.81;36.55;95093.25;5040686;28;9157;-38
2024/01/22 00:42:26;;;;;;;;;;;;;;;25.78;35.88;95083.19;5071334;28;8757;-38
2024/01/22 00:45:01;;;;;;;;;;;;;;;25.78;36.38;95076.94;5051018;28;7234;-38
2024/01/22 00:47:37;;;;;;;;;;;;;;;25.79;36.02;95067.44;5037422;28;7077;-38
2024/01/22 00:50:06;;;;;;;;;;;;;;;25.81;36.83;95076.72;5042887;28;9124;-38
2024/01/22 00:52:34;;;;;;;;;;;;;;;25.80;35.80;95066.91;5057408;28;7152;-39
2024/01/22 00:55:05;;;;;;;;;;;;;;;25.80;36.51;95047.63;5059081;28;8908;-38
2024/01/22 00:57:31;;;;;;;;;;;;;;;25.80;36.65;95060.66;5048426;28;7058;-39
2024/01/22 00:59:59;;;;;;;;;;;;;;;25.80;36.30;95053.16;5036494;28;9991;-38
2024/01/22 01:02:38;;;;;;;;;;;;;;;25.79;35.77;95046.13;5023675;28;9194;-38
2024/01/22 01:05:22;;;;;;;;;;;;;;;25.82;35.98;95056.16;5063809;28;9399;-38
2024/01/22 01:07:48;;;;;;;;;;;;;;;25.80;36.34;95047.63;5049179;28;9013;-38
2024/01/22 01:10:14;;;;;;;;;;;;;;;25.79;36.26;95037.88;5043779;28;8810;-38
2024/01/22 01:12:40;;;;;;;;;;;;;;;25.80;36.29;95041.38;5055790;28;7063;-38
2024/01/22 01:15:39;;;;;;;;;;;;;;;25.79;36.35;95051.66;5055968;28;7056;-38
2024/01/22 01:18:15;;;;;;;;;;;;;;;25.80;36.51;95049.63;4977494;28;9034;-38
2024/01/22 01:20:56;;;;;;;;;;;;;;;25.80;36.53;95046.88;4960194;28;8743;-38
2024/01/22 01:23:35;;;;;;;;;;;;;;;25.79;36.14;95043.38;4984724;28;9052;-38
2024/01/22 01:26:01;;;;;;;;;;;;;;;25.78;36.19;95041.09;4991240;28;7284;-38
2024/01/22 01:28:46;;;;;;;;;;;;;;;25.79;36.14;95039.88;4960241;28;8664;-38
2024/01/22 01:31:12;;;;;;;;;;;;;;;25.76;36.24;95038.84;4995555;28;7204;-38
2024/01/22 01:33:47;;;;;;;;;;;;;;;25.78;36.05;95044.63;4989604;28;7437;-38
2024/01/22 01:36:13;;;;;;;;;;;;;;;25.78;36.44;95041.88;4974496;28;7052;-38
2024/01/22 01:38:39;;;;;;;;;;;;;;;25.78;36.20;95033.59;4963257;28;7017;-38
2024/01/22 01:41:06;;;;;;;;;;;;;;;25.77;35.79;95021.09;4989825;28;7125;-38
2024/01/22 01:43:32;;;;;;;;;;;;;;;25.78;35.67;95021.81;4976131;28;7376;-38
2024/01/22 01:46:00;;;;;;;;;;;;;;;25.77;35.87;95023.09;4971548;28;7424;-39
2024/01/22 01:48:26;;;;;;;;;;;;;;;25.78;36.27;95024.56;4990650;28;7378;-38
2024/01/22 01:51:03;;;;;;;;;;;;;;;25.76;35.81;95025.06;4963094;28;9220;-38
2024/01/22 01:53:43;;;;;;;;;;;;;;;25.75;35.81;95018.03;5008783;28;7004;-38
2024/01/22 01:56:10;;;;;;;;;;;;;;;25.75;35.99;95007.03;5061046;28;9123;-38
2024/01/22 01:58:36;;;;;;;;;;;;;;;25.76;36.26;95011.31;5067396;28;7253;-38
2024/01/22 02:01:06;;;;;;;;;;;;;;;25.71;35.96;94998.25;5063112;28;9009;-38
2024/01/22 02:03:45;;;;;;;;;;;;;;;25.74;36.10;95005.53;5059661;28;8294;-38
2024/01/22 02:06:12;;;;;;;;;;;;;;;25.74;36.33;94993.75;5071793;28;8775;-38
2024/01/22 02:08:49;;;;;;;;;;;;;;;25.74;36.03;94989.00;5063093;28;6993;-38
2024/01/22 02:11:17;;;;;;;;;;;;;;;25.73;35.68;94981.97;5060499;28;9163;-38
2024/01/22 02:13:43;;;;;;;;;;;;;;;25.74;35.96;94979.97;5057836;28;7206;-38
2024/01/22 02:16:11;;;;;;;;;;;;;;;25.74;36.21;94989.00;5054676;28;8730;-38
2024/01/22 02:18:47;;;;;;;;;;;;;;;25.74;35.60;94991.00;5069708;28;7317;-38
2024/01/22 02:21:16;;;;;;;;;;;;;;;25.73;35.80;94990.25;5052429;28;7267;-38
2024/01/22 02:23:42;;;;;;;;;;;;;;;25.73;35.88;95000.53;5069238;28;7694;-38
2024/01/22 02:26:08;;;;;;;;;;;;;;;25.73;36.25;94998.50;5039745;28;8766;-38
2024/01/22 02:28:35;;;;;;;;;;;;;;;25.73;35.53;94993.00;5061968;28;7014;-38
2024/01/22 02:31:03;;;;;;;;;;;;;;;25.73;36.11;94986.75;5050379;28;7090;-37
2024/01/22 02:33:30;;;;;;;;;;;;;;;25.72;35.48;94986.00;5071390;28;7286;-37
2024/01/22 02:36:08;;;;;;;;;;;;;;;25.71;35.53;94981.00;5077515;28;7115;-37
2024/01/22 02:38:35;;;;;;;;;;;;;;;25.68;36.24;94977.22;5056009;28;7075;-37
2024/01/22 02:41:12;;;;;;;;;;;;;;;25.71;36.25;94975.47;5055838;28;9088;-37
2024/01/22 02:43:39;;;;;;;;;;;;;;;25.69;35.71;94964.94;5054334;28;7090;-37
2024/01/22 02:46:09;;;;;;;;;;;;;;;25.73;35.71;94972.97;5054291;28;9553;-37
2024/01/22 02:48:47;;;;;;;;;;;;;;;25.72;35.29;94955.69;5038699;28;7226;-37
2024/01/22 02:51:25;;;;;;;;;;;;;;;25.73;35.43;94948.19;5043647;28;8756;-37
2024/01/22 02:54:02;;;;;;;;;;;;;;;25.71;35.38;94953.44;5076880;28;8162;-37
2024/01/22 02:56:31;;;;;;;;;;;;;;;25.71;35.54;94943.16;5060026;28;8998;-38
2024/01/22 02:58:56;;;;;;;;;;;;;;;25.72;35.99;94930.13;5037587;28;7407;-37
2024/01/22 03:01:23;;;;;;;;;;;;;;;25.71;36.27;94918.34;5055661;28;9046;-37
2024/01/22 03:03:49;;;;;;;;;;;;;;;25.71;36.08;94912.13;5053799;28;9088;-37
2024/01/22 03:06:16;;;;;;;;;;;;;;;25.68;35.46;94908.34;5057913;28;7213;-37
2024/01/22 03:09:10;;;;;;;;;;;;;;;25.68;36.16;94897.31;5040982;28;7156;-37
2024/01/22 03:11:48;;;;;;;;;;;;;;;25.67;36.02;94898.56;5013253;28;7009;-37
2024/01/22 03:14:28;;;;;;;;;;;;;;;25.65;35.57;94881.03;5024354;28;9036;-37
2024/01/22 03:17:16;;;;;;;;;;;;;;;25.67;35.77;94887.53;5017796;28;7214;-37
2024/01/22 03:20:14;;;;;;;;;;;;;;;25.66;35.46;94875.03;5020402;28;7068;-37
2024/01/22 03:22:43;;;;;;;;;;;;;;;25.66;36.00;94882.53;4949780;28;8917;-37
2024/01/22 03:25:14;;;;;;;;;;;;;;;25.65;35.54;94895.56;4928895;28;9985;-37
2024/01/22 03:27:42;;;;;;;;;;;;;;;25.67;35.67;94900.56;4932356;28;7364;-37
2024/01/22 03:30:09;;;;;;;;;;;;;;;25.67;35.46;94895.06;4939343;28;7219;-37
2024/01/22 03:32:39;;;;;;;;;;;;;;;25.66;35.67;94899.06;4953253;28;7220;-37
2024/01/22 03:35:05;;;;;;;;;;;;;;;25.66;35.65;94899.06;4936193;28;9251;-37
2024/01/22 03:37:34;;;;;;;;;;;;;;;25.64;35.27;94896.81;4942434;28;7685;-37
2024/01/22 03:40:00;;;;;;;;;;;;;;;25.67;35.91;94897.81;4930981;29;8927;-57
2024/01/22 03:42:26;;;;;;;;;;;;;;;25.65;35.53;94897.56;4956661;28;7745;-56
2024/01/22 03:44:54;;;;;;;;;;;;;;;25.64;35.51;94902.34;4943202;28;6920;-56
2024/01/22 03:47:23;;;;;;;;;;;;;;;25.64;35.90;94907.84;4940145;28;7362;-56
2024/01/22 03:49:50;;;;;;;;;;;;;;;25.64;35.68;94898.81;4953647;28;7668;-56
2024/01/22 03:52:36;;;;;;;;;;;;;;;25.67;35.73;94911.59;4957446;28;7307;-56
2024/01/22 03:55:02;;;;;;;;;;;;;;;25.63;35.36;94908.31;4978703;28;8184;-56
2024/01/22 03:57:31;;;;;;;;;;;;;;;25.64;35.59;94907.09;4992840;28;7013;-56
2024/01/22 03:59:56;;;;;;;;;;;;;;;25.65;36.01;94908.56;5056606;28;7231;-56
2024/01/22 04:02:50;;;;;;;;;;;;;;;25.64;36.04;94909.84;5055974;28;7045;-57
2024/01/22 04:05:47;;;;;;;;;;;;;;;25.65;35.38;94914.84;4963677;28;9362;-56
2024/01/22 04:08:28;;;;;;;;;;;;;;;25.63;35.65;94895.31;4991060;28;9079;-57
2024/01/22 04:11:27;;;;;;;;;;;;;;;25.65;35.35;94894.81;4973052;28;7219;-57
2024/01/22 04:13:55;;;;;;;;;;;;;;;25.65;35.60;94895.56;4937459;28;7089;-57
2024/01/22 04:16:31;;;;;;;;;;;;;;;25.62;36.02;94884.78;4934725;29;9127;-56
2024/01/22 04:18:57;;;;;;;;;;;;;;;25.61;35.25;94881.28;4935422;28;8841;-56
2024/01/22 04:21:29;;;;;;;;;;;;;;;25.64;36.06;94876.78;4934892;28;8922;-57
2024/01/22 04:24:13;;;;;;;;;;;;;;;25.65;35.91;94876.28;4926969;29;7484;-56
2024/01/22 04:26:42;;;;;;;;;;;;;;;25.64;35.67;94883.06;4915386;29;7300;-56
2024/01/22 04:29:12;;;;;;;;;;;;;;;25.65;35.96;94876.28;4916171;29;6925;-56
2024/01/22 04:31:41;;;;;;;;;;;;;;;25.64;36.12;94885.03;4932685;29;7256;-56
2024/01/22 04:34:09;;;;;;;;;;;;;;;25.66;35.57;94879.78;4919757;29;7321;-56
2024/01/22 04:36:37;;;;;;;;;;;;;;;25.65;35.43;94879.03;4931757;29;9491;-56
2024/01/22 04:39:03;;;;;;;;;;;;;;;25.66;35.97;94886.06;4919254;29;7264;-56
2024/01/22 04:41:30;;;;;;;;;;;;;;;25.66;35.24;94888.81;4930685;28;7199;-56
2024/01/22 04:44:11;;;;;;;;;;;;;;;25.66;35.48;94888.81;5016734;28;6895;-56
2024/01/22 04:46:45;;;;;;;;;;;;;;;25.66;35.52;94883.31;5031932;28;9090;-56
2024/01/22 04:49:24;;;;;;;;;;;;;;;25.66;35.91;94877.78;5014517;28;7054;-68
2024/01/22 04:52:06;;;;;;;;;;;;;;;25.66;35.55;94880.56;5039362;28;7080;-37
2024/01/22 04:54:34;;;;;;;;;;;;;;;25.68;35.03;94880.03;5053235;28;7230;-37
2024/01/22 04:57:00;;;;;;;;;;;;;;;25.68;35.72;94885.53;5054000;28;6973;-37
2024/01/22 04:59:26;;;;;;;;;;;;;;;25.67;35.61;94892.28;5035259;28;9144;-37
2024/01/22 05:02:09;;;;;;;;;;;;;;;25.61;35.94;94881.28;5051033;28;7223;-37
2024/01/22 05:04:37;;;;;;;;;;;;;;;25.65;35.97;94884.53;5052164;28;7111;-38
2024/01/22 05:07:03;;;;;;;;;;;;;;;25.65;35.28;94881.03;5054923;28;9035;-37
2024/01/22 05:09:29;;;;;;;;;;;;;;;25.67;35.30;94878.53;5047273;28;9130;-37
2024/01/22 05:11:55;;;;;;;;;;;;;;;25.69;35.75;94889.78;5051077;28;7130;-37
2024/01/22 05:14:23;;;;;;;;;;;;;;;25.66;35.80;94897.06;5061782;28;9052;-37
2024/01/22 05:16:55;;;;;;;;;;;;;;;25.66;35.28;94905.34;5067530;28;7483;-37
2024/01/22 05:19:21;;;;;;;;;;;;;;;25.63;35.41;94884.28;5079642;28;6988;-37
2024/01/22 05:21:47;;;;;;;;;;;;;;;25.67;35.52;94900.56;5035700;28;8779;-37
2024/01/22 05:24:15;;;;;;;;;;;;;;;25.68;34.92;94900.09;5037886;28;8926;-38
2024/01/22 05:26:40;;;;;;;;;;;;;;;25.69;35.01;94895.31;5049131;28;7079;-38
2024/01/22 05:29:06;;;;;;;;;;;;;;;25.67;35.09;94895.81;5034572;28;7584;-37
2024/01/22 05:31:32;;;;;;;;;;;;;;;25.65;35.33;94903.06;5053523;28;9124;-37
2024/01/22 05:34:01;;;;;;;;;;;;;;;25.66;35.81;94905.34;5051106;28;7126;-37
2024/01/22 05:36:27;;;;;;;;;;;;;;;25.62;35.75;94904.81;5053768;28;8450;-37
2024/01/22 05:38:56;;;;;;;;;;;;;;;25.64;35.08;94907.09;5038144;28;7586;-37
2024/01/22 05:41:27;;;;;;;;;;;;;;;25.64;36.19;94905.09;5038806;28;7205;-37
2024/01/22 05:44:00;;;;;;;;;;;;;;;25.63;35.89;94917.34;5064025;28;7054;-37
2024/01/22 05:46:31;;;;;;;;;;;;;;;25.63;35.48;94911.84;5052184;28;8935;-37
2024/01/22 05:49:02;;;;;;;;;;;;;;;25.67;35.62;94917.09;5032583;28;8772;-37
2024/01/22 05:51:58;;;;;;;;;;;;;;;25.66;35.18;94902.59;5062224;28;7241;-37
2024/01/22 05:54:24;;;;;;;;;;;;;;;25.76;35.12;94900.31;5055626;28;9048;-37
2024/01/22 05:56:50;;;;;;;;;;;;;;;25.78;35.31;94915.13;5072136;28;6973;-37
2024/01/22 05:59:19;;;;;;;;;;;;;;;25.80;35.38;94914.59;5040037;28;8961;-38
2024/01/22 06:02:05;;;;;;;;;;;;;;;25.83;34.66;94905.34;5067096;28;9116;-40
2024/01/22 06:04:33;;;;;;;;;;;;;;;25.82;35.37;94890.81;5055207;28;7424;-39
2024/01/22 06:07:03;;;;;;;;;;;;;;;25.77;35.44;94877.81;5041895;28;7128;-41
2024/01/22 06:09:29;;;;;;;;;;;;;;;25.82;35.09;94874.28;5068340;28;8930;-38
2024/01/22 06:11:55;;;;;;;;;;;;;;;25.80;35.59;94887.81;5058681;28;7042;-38
2024/01/22 06:14:21;;;;;;;;;;;;;;;25.81;35.18;94891.31;5035795;28;9007;-38
2024/01/22 06:16:47;;;;;;;;;;;;;;;25.86;35.25;94885.81;5060554;28;9211;-38
2024/01/22 06:19:13;;;;;;;;;;;;;;;25.89;35.39;94884.06;5043804;28;9216;-38
2024/01/22 06:21:42;;;;;;;;;;;;;;;25.83;35.10;94895.09;5056781;28;7790;-38
2024/01/22 06:24:08;;;;;;;;;;;;;;;25.86;35.76;94896.09;5055210;28;7968;-38
2024/01/22 06:26:45;;;;;;;;;;;;;;;25.91;35.04;94885.06;5054705;28;7153;-38
2024/01/22 06:29:21;;;;;;;;;;;;;;;25.92;35.19;94894.09;5055648;28;7671;-38
2024/01/22 06:31:58;;;;;;;;;;;;;;;25.94;35.39;94888.81;5053064;28;7188;-38
2024/01/22 06:34:48;;;;;;;;;;;;;;;25.96;35.32;94891.81;5061032;28;9031;-38
2024/01/22 06:37:15;;;;;;;;;;;;;;;25.97;35.61;94885.81;5050627;28;8965;-38
2024/01/22 06:39:44;;;;;;;;;;;;;;;25.97;34.48;94885.03;5026353;28;7248;-38
2024/01/22 06:42:23;;;;;;;;;;;;;;;25.95;34.68;94871.78;5055149;28;9374;-38
2024/01/22 06:44:50;;;;;;;;;;;;;;;25.94;34.45;94867.53;5051604;28;7328;-38
2024/01/22 06:47:20;;;;;;;;;;;;;;;25.89;34.24;94876.53;5068322;28;7270;-38
2024/01/22 06:49:47;;;;;;;;;;;;;;;25.87;34.75;94876.28;5068710;28;8866;-38
2024/01/22 06:52:23;;;;;;;;;;;;;;;25.83;34.54;94870.28;5045245;28;6964;-38
2024/01/22 06:55:09;;;;;;;;;;;;;;;25.87;34.15;94887.31;5061590;28;8015;-38
2024/01/22 06:57:35;;;;;;;;;;;;;;;25.85;34.55;94889.81;5057562;28;7275;-38
2024/01/22 07:00:06;;;;;;;;;;;;;;;25.86;34.61;94883.03;5048884;28;8956;-38
2024/01/22 07:02:48;;;;;;;;;;;;;;;25.90;34.23;94883.53;5049077;28;7599;-38
2024/01/22 07:05:16;;;;;;;;;;;;;;;25.89;34.48;94875.78;5038450;28;8756;-38
2024/01/22 07:07:54;;;;;;;;;;;;;;;25.85;34.61;94867.78;5051519;28;7606;-38
2024/01/22 07:10:38;;;;;;;;;;;;;;;25.87;35.03;94870.78;5069979;28;7042;-38
2024/01/22 07:13:15;;;;;;;;;;;;;;;25.84;35.23;94876.53;5055079;28;7064;-38
2024/01/22 07:15:51;;;;;;;;;;;;;;;25.82;35.37;94879.78;5067442;28;7283;-38
2024/01/22 07:18:18;;;;;;;;;;;;;;;25.79;35.00;94886.31;5067217;28;7170;-38
2024/01/22 07:20:47;;;;;;;;;;;;;;;25.79;34.71;94891.81;5059393;28;7818;-38
2024/01/22 07:23:14;;;;;;;;;;;;;;;25.79;35.34;94891.81;5070367;28;7243;-37
2024/01/22 07:26:01;;;;;;;;;;;;;;;25.81;35.21;94883.81;5065582;28;7249;-37
2024/01/22 07:28:27;;;;;;;;;;;;;;;25.81;34.97;94892.06;5054613;28;8711;-37
2024/01/22 07:31:00;;;;;;;;;;;;;;;25.79;35.28;94885.56;5037028;28;7478;-37
2024/01/22 07:33:26;;;;;;;;;;;;;;;25.82;35.31;94885.31;5065735;28;9089;-37
2024/01/22 07:36:07;;;;;;;;;;;;;;;25.81;35.59;94883.81;5070137;28;9248;-37
2024/01/22 07:38:36;;;;;;;;;;;;;;;25.84;35.21;94879.28;5033223;28;9062;-37
2024/01/22 07:41:02;;;;;;;;;;;;;;;25.85;35.07;94897.34;5057644;28;7323;-37
2024/01/22 07:43:28;;;;;;;;;;;;;;;25.82;35.08;94909.34;5057323;28;8624;-37
2024/01/22 07:45:56;;;;;;;;;;;;;;;25.81;35.12;94914.13;5044377;28;8931;-37
2024/01/22 07:48:22;;;;;;;;;;;;;;;25.76;35.02;94914.88;5057359;28;8866;-37
2024/01/22 07:50:48;;;;;;;;;;;;;;;25.78;35.06;94922.63;5062587;28;7235;-37
2024/01/22 07:53:15;;;;;;;;;;;;;;;25.79;35.44;94944.19;5043521;28;7233;-37
2024/01/22 07:55:41;;;;;;;;;;;;;;;25.76;35.39;94939.66;5054284;28;9102;-36
2024/01/22 07:58:09;;;;;;;;;;;;;;;25.84;35.29;94942.66;5065219;28;7260;-38
2024/01/22 08:00:35;;;;;;;;;;;;;;;25.86;35.33;94960.22;5063219;28;8656;-38
2024/01/22 08:03:01;;;;;;;;;;;;;;;25.87;34.93;94966.47;5063834;28;9036;-37
2024/01/22 08:05:28;;;;;;;;;;;;;;;25.82;34.75;94953.44;5052720;28;7275;-37
2024/01/22 08:07:53;;;;;;;;;;;;;;;25.82;35.07;94961.69;5055327;28;7258;-38
2024/01/22 08:10:21;;;;;;;;;;;;;;;25.83;35.68;94958.47;5047911;28;7182;-37
2024/01/22 08:12:55;;;;;;;;;;;;;;;25.83;34.84;94963.97;5051481;28;8534;-37
2024/01/22 08:15:21;;;;;;;;;;;;;;;25.86;35.24;94953.97;5062379;28;9122;-37
2024/01/22 08:17:49;;;;;;;;;;;;;;;25.85;34.52;94953.22;5070076;28;7189;-37
2024/01/22 08:20:18;;;;;;;;;;;;;;;25.81;35.55;94960.22;5075334;28;9286;-37
2024/01/22 08:23:13;;;;;;;;;;;;;;;25.85;35.09;94972.50;5071452;28;7244;-37
2024/01/22 08:25:54;;;;;;;;;;;;;;;25.81;35.75;94974.00;4996161;28;8741;-38
2024/01/22 08:28:20;;;;;;;;;;;;;;;25.80;35.19;94962.22;4995126;28;9273;-37
2024/01/22 08:30:59;;;;;;;;;;;;;;;25.80;35.23;94964.97;4995395;28;7131;-41
2024/01/22 08:33:27;;;;;;;;;;;;;;;25.84;35.32;94953.69;5000411;28;8724;-40
2024/01/22 08:36:06;;;;;;;;;;;;;;;25.87;35.37;94953.47;4998136;28;7162;-40
2024/01/22 08:38:33;;;;;;;;;;;;;;;25.83;35.58;94943.94;4977696;28;7175;-40
2024/01/22 08:40:59;;;;;;;;;;;;;;;25.81;35.76;94940.94;5008478;28;7120;-42
2024/01/22 08:43:38;;;;;;;;;;;;;;;25.84;36.29;94937.16;4981707;28;7220;-42
2024/01/22 08:46:04;;;;;;;;;;;;;;;25.86;36.27;94927.13;4987283;28;7001;-39
2024/01/22 08:49:01;;;;;;;;;;;;;;;25.86;36.11;94934.69;4995850;28;7161;-40
2024/01/22 08:51:43;;;;;;;;;;;;;;;25.85;36.03;94927.66;4920022;29;8448;-40
2024/01/22 08:54:10;;;;;;;;;;;;;;;25.85;35.93;94919.38;4912057;29;7197;-40
2024/01/22 08:56:38;;;;;;;;;;;;;;;25.81;36.08;94916.88;4920168;29;8769;-40
2024/01/22 08:59:06;;;;;;;;;;;;;;;25.87;35.85;94917.63;4927418;29;7532;-41
2024/01/22 09:01:34;;;;;;;;;;;;;;;25.86;36.01;94902.34;4920579;28;8770;-42
2024/01/22 09:04:02;;;;;;;;;;;;;;;25.83;36.03;94913.63;4974333;28;7548;-39
2024/01/22 09:06:28;;;;;;;;;;;;;;;25.85;36.43;94911.88;4987508;28;7538;-40
2024/01/22 09:08:54;;;;;;;;;;;;;;;25.84;36.71;94895.81;4989285;28;8754;-41
2024/01/22 09:11:20;;;;;;;;;;;;;;;25.83;36.57;94886.81;4978324;28;7255;-43
2024/01/22 09:13:47;;;;;;;;;;;;;;;25.85;36.58;94870.53;4980076;28;8750;-40
2024/01/22 09:16:14;;;;;;;;;;;;;;;25.83;36.36;94847.47;4988126;28;7283;-39
2024/01/22 09:18:42;;;;;;;;;;;;;;;25.81;36.50;94845.22;4992695;28;7257;-41
2024/01/22 09:21:13;;;;;;;;;;;;;;;25.87;35.98;94848.72;4986124;28;6919;-41
2024/01/22 09:24:08;;;;;;;;;;;;;;;25.87;35.93;94829.44;4977668;28;9073;-40
2024/01/22 09:26:47;;;;;;;;;;;;;;;25.82;36.13;94816.41;4927470;29;8926;-40
2024/01/22 09:29:14;;;;;;;;;;;;;;;25.85;36.65;94815.41;4965061;28;9445;-41
2024/01/22 09:31:42;;;;;;;;;;;;;;;25.83;36.17;94809.66;4963109;28;9023;-40
2024/01/22 09:34:10;;;;;;;;;;;;;;;25.87;36.34;94806.63;4965640;28;7054;-40
2024/01/22 09:36:38;;;;;;;;;;;;;;;25.89;36.65;94815.91;4962514;28;7326;-40
2024/01/22 09:39:13;;;;;;;;;;;;;;;25.87;36.48;94801.88;4960047;28;7223;-41
2024/01/22 09:42:08;;;;;;;;;;;;;;;25.88;36.78;94789.59;4966049;28;7201;-37
2024/01/22 09:45:03;;;;;;;;;;;;;;;25.91;36.99;94826.44;4899583;29;7244;-37
2024/01/22 09:47:38;;;;;;;;;;;;;;;25.90;36.36;94814.63;4903217;29;9070;-38
2024/01/22 09:50:07;;;;;;;;;;;;;;;25.91;36.15;94818.91;4896866;29;7401;-38
2024/01/22 09:52:45;;;;;;;;;;;;;;;25.89;36.99;94813.16;4899381;29;7311;-38
2024/01/22 09:55:13;;;;;;;;;;;;;;;25.91;36.90;94802.38;4883316;29;7415;-38
2024/01/22 09:57:47;;;;;;;;;;;;;;;25.97;36.34;94788.56;4883458;29;7256;-38
2024/01/22 10:00:16;;;;;;;;;;;;;;;25.99;36.83;94791.59;4898950;29;7421;-38
2024/01/22 10:02:42;;;;;;;;;;;;;;;25.99;36.83;94786.09;4918867;28;8668;-38
2024/01/22 10:05:09;;;;;;;;;;;;;;;26.00;36.32;94785.59;4958253;28;7161;-38
2024/01/22 10:07:42;;;;;;;;;;;;;;;25.99;36.66;94775.81;4957276;28;8707;-38
2024/01/22 10:10:09;;;;;;;;;;;;;;;26.00;36.10;94774.56;4965508;28;7299;-38
2024/01/22 10:12:59;;;;;;;;;;;;;;;26.02;36.66;94776.81;4971625;28;7184;-38
2024/01/22 10:15:29;;;;;;;;;;;;;;;26.01;36.11;94780.81;4984457;28;7280;-37
2024/01/22 10:18:25;;;;;;;;;;;;;;;26.01;36.02;94770.53;4985898;28;7152;-38
2024/01/22 10:21:03;;;;;;;;;;;;;;;25.99;35.48;94748.22;4954673;28;9299;-38
2024/01/22 10:24:13;;;;;;;;;;;;;;;25.98;35.42;94744.00;4983699;28;6994;-38
2024/01/22 10:27:15;;;;;;;;;;;;;;;26.01;35.32;94728.47;5012032;28;7218;-38
2024/01/22 10:30:14;;;;;;;;;;;;;;;26.02;35.67;94716.91;4980993;28;7420;-37
2024/01/22 10:33:31;;;;;;;;;;;;;;;26.03;35.94;94712.16;4914910;29;7338;-37
2024/01/22 10:36:34;;;;;;;;;;;;;;;26.02;34.98;94694.88;4897655;29;8727;-37
2024/01/22 10:39:11;;;;;;;;;;;;;;;26.04;35.52;94694.34;4836266;29;8002;-37
2024/01/22 10:42:06;;;;;;;;;;;;;;;26.06;35.51;94692.59;5100576;28;7008;-36
2024/01/22 10:44:32;;;;;;;;;;;;;;;26.08;35.04;94692.88;5067558;28;9521;-36
2024/01/22 10:47:04;;;;;;;;;;;;;;;26.06;34.89;94689.84;5078567;28;8722;-36
2024/01/22 10:49:34;;;;;;;;;;;;;;;26.07;35.03;94685.06;5067087;28;9106;-39
2024/01/22 10:52:04;;;;;;;;;;;;;;;26.08;35.29;94673.56;5064343;28;9144;-38
2024/01/22 10:54:40;;;;;;;;;;;;;;;26.10;35.36;94653.75;5052529;28;7219;-40
2024/01/22 10:57:41;;;;;;;;;;;;;;;26.12;35.06;94626.47;5089342;28;9036;-39
2024/01/22 11:00:43;;;;;;;;;;;;;;;26.11;35.61;94628.47;5090242;28;7071;-38
2024/01/22 11:03:28;;;;;;;;;;;;;;;26.13;35.65;94638.97;5025161;28;7292;-39
2024/01/22 11:06:05;;;;;;;;;;;;;;;26.15;35.04;94644.72;5039169;28;7074;-40
2024/01/22 11:08:35;;;;;;;;;;;;;;;26.17;35.12;94659.50;5030247;28;7175;-40
2024/01/22 11:11:04;;;;;;;;;;;;;;;26.20;34.90;94648.72;5010081;28;6944;-40
2024/01/22 11:13:33;;;;;;;;;;;;;;;26.18;35.63;94646.47;5032568;28;8803;-39
2024/01/22 11:16:05;;;;;;;;;;;;;;;26.22;34.81;94637.91;5045588;28;7270;-39
2024/01/22 11:18:32;;;;;;;;;;;;;;;26.22;35.37;94635.91;5029463;28;7072;-39
2024/01/22 11:21:20;;;;;;;;;;;;;;;26.20;35.53;94621.13;5027194;28;7192;-40
2024/01/22 11:24:09;;;;;;;;;;;;;;;26.19;35.75;94625.16;5031511;28;7283;-39
2024/01/22 11:26:35;;;;;;;;;;;;;;;26.21;35.16;94615.09;5036180;28;7447;-39
2024/01/22 11:29:09;;;;;;;;;;;;;;;26.25;35.48;94607.34;5018817;28;9180;-40
2024/01/22 11:31:45;;;;;;;;;;;;;;;26.24;35.58;94596.81;5015009;28;7062;-40
2024/01/22 11:34:44;;;;;;;;;;;;;;;26.25;35.82;94599.06;5023790;28;8678;-39
2024/01/22 11:37:11;;;;;;;;;;;;;;;26.27;35.57;94582.00;5034638;28;8459;-39
2024/01/22 11:39:41;;;;;;;;;;;;;;;26.28;35.26;94577.97;5030868;28;7044;-39
2024/01/22 11:42:16;;;;;;;;;;;;;;;26.26;34.84;94574.97;5058477;28;6994;-39
2024/01/22 11:44:45;;;;;;;;;;;;;;;26.25;35.50;94577.00;5059045;28;7480;-39
2024/01/22 11:47:15;;;;;;;;;;;;;;;26.26;36.08;94572.22;5061901;28;7181;-39
2024/01/22 11:49:42;;;;;;;;;;;;;;;26.25;35.90;94556.94;5069062;28;7044;-40
2024/01/22 11:52:30;;;;;;;;;;;;;;;26.22;35.25;94553.22;5029853;28;9067;-39
2024/01/22 11:55:06;;;;;;;;;;;;;;;26.21;35.76;94545.44;5026902;28;7211;-40
2024/01/22 11:57:37;;;;;;;;;;;;;;;26.21;36.08;94548.22;5029722;28;7248;-40
2024/01/22 12:00:09;;;;;;;;;;;;;;;26.22;35.47;94553.22;5039108;28;9036;-40
2024/01/22 12:02:40;;;;;;;;;;;;;;;26.22;35.24;94558.72;5028241;28;7616;-40
2024/01/22 12:05:12;;;;;;;;;;;;;;;26.20;35.96;94557.72;5018333;28;7240;-40
2024/01/22 12:07:42;;;;;;;;;;;;;;;26.22;35.52;94552.44;5028009;28;7205;-40
2024/01/22 12:10:21;;;;;;;;;;;;;;;26.19;36.15;94556.97;5043382;28;6966;-40
2024/01/22 12:12:58;;;;;;;;;;;;;;;26.19;35.73;94551.47;5038977;28;9459;-41
2024/01/22 12:15:31;;;;;;;;;;;;;;;26.19;36.11;94559.72;5046862;28;6973;-40
2024/01/22 12:18:07;;;;;;;;;;;;;;;26.18;35.92;94577.53;5037235;28;7271;-40
2024/01/22 12:20:37;;;;;;;;;;;;;;;26.14;36.07;94563.28;5045253;28;7039;-40
2024/01/22 12:23:05;;;;;;;;;;;;;;;26.14;36.19;94575.03;5036280;28;7012;-40
2024/01/22 12:26:16;;;;;;;;;;;;;;;26.17;36.04;94574.03;5039499;28;8825;-41
2024/01/22 12:28:43;;;;;;;;;;;;;;;26.19;36.10;94570.03;5043272;28;7076;-40
2024/01/22 12:31:11;;;;;;;;;;;;;;;26.15;35.92;94570.28;5036845;28;8540;-40
2024/01/22 12:33:38;;;;;;;;;;;;;;;26.12;36.44;94574.81;5018619;28;7254;-40
2024/01/22 12:36:09;;;;;;;;;;;;;;;26.15;35.68;94575.81;5025027;28;7399;-41
2024/01/22 12:38:56;;;;;;;;;;;;;;;26.13;35.84;94579.06;5037572;28;7054;-40
2024/01/22 12:41:23;;;;;;;;;;;;;;;26.11;35.85;94581.59;5046564;28;7274;-41
2024/01/22 12:43:57;;;;;;;;;;;;;;;26.09;36.08;94580.59;5035585;28;7270;-41
2024/01/22 12:46:57;;;;;;;;;;;;;;;26.10;36.20;94582.84;5058595;28;7289;-42
2024/01/22 12:49:27;;;;;;;;;;;;;;;26.13;35.88;94589.34;5033591;28;9092;-41
2024/01/22 12:51:53;;;;;;;;;;;;;;;26.11;35.48;94583.59;5033182;28;6983;-40
2024/01/22 12:54:19;;;;;;;;;;;;;;;26.09;35.79;94584.13;5008130;28;6963;-40
2024/01/22 12:57:01;;;;;;;;;;;;;;;26.11;36.09;94597.38;5015624;28;7826;-40
2024/01/22 12:59:49;;;;;;;;;;;;;;;26.12;35.42;94604.41;5033433;28;7149;-40
2024/01/22 13:02:15;;;;;;;;;;;;;;;26.13;35.79;94600.38;4998524;28;7030;-41
2024/01/22 13:04:42;;;;;;;;;;;;;;;26.12;35.74;94605.13;5025603;28;9116;-40
2024/01/22 13:07:11;;;;;;;;;;;;;;;26.11;35.73;94592.63;5016136;28;7007;-40
2024/01/22 13:09:38;;;;;;;;;;;;;;;26.12;35.08;94593.38;5008955;28;7234;-36
2024/01/22 13:12:09;;;;;;;;;;;;;;;26.11;35.79;94580.84;5007770;28;6895;-36
2024/01/22 13:14:45;;;;;;;;;;;;;;;26.12;35.67;94583.06;5030129;28;7115;-36
2024/01/22 13:17:41;;;;;;;;;;;;;;;26.12;35.71;94585.09;5006635;28;6970;-36
2024/01/22 13:20:17;;;;;;;;;;;;;;;26.11;35.65;94576.06;4937605;28;7679;-36
2024/01/22 13:22:52;;;;;;;;;;;;;;;26.09;35.38;94569.56;4933198;28;9108;-36
2024/01/22 13:25:19;;;;;;;;;;;;;;;26.11;35.66;94576.06;4922141;28;7504;-36
2024/01/22 13:28:06;;;;;;;;;;;;;;;26.10;35.58;94568.31;4934090;29;6993;-35
2024/01/22 13:30:41;;;;;;;;;;;;;;;26.10;35.09;94563.53;4927493;29;7292;-35